Time;durP1;ratioP1;P1;durP2;ratioP2;P2;SDS_P1;SDS_P2;PMS_P1;PMS_P2;Temp;Humidity;BMP_temperature;BMP_pressure;BME280_temperature;BME280_humidity;BME280_pressure;Samples;Min_cycle;Max_cycle;Signal;HPM_P1;HPM_P2
2023/04/10 00:00:32;;;;;;;69.20;42.80;;;;;;;6.01;81.53;101242.56;126593;1291;114918;-64
2023/04/10 00:16:59;;;;;;;63.80;40.30;;;;;;;6.00;81.66;101227.31;126749;1294;128222;-69
2023/04/10 00:21:01;;;;;;;75.80;47.70;;;;;;;5.96;81.82;101228.59;125929;1296;115562;-63
2023/04/10 00:25:02;;;;;;;103.60;54.40;;;;;;;5.91;81.96;101227.06;121787;1305;5496269;-63
2023/04/10 00:37:36;;;;;;;117.80;54.70;;;;;;;5.90;82.49;101223.70;127816;1280;126516;-69
2023/04/10 00:41:39;;;;;;;;;;;;;;;;;;;;;
2023/04/10 00:53:33;;;;;;;;;;;;;;;;;;;;;
2023/04/10 00:57:22;;;;;;;231.80;47.90;;;;;;;5.97;82.60;101214.73;124583;1310;114990;-66
2023/04/10 01:01:15;;;;;;;;;;;;;;;;;;;;;
2023/04/10 01:13:58;;;;;;;131.50;49.50;;;;;;;5.98;82.97;101224.82;128503;1276;128875;-66
2023/04/10 01:22:10;;;;;;;118.00;48.80;;;;;;;5.95;82.92;101225.41;123538;1289;5432417;-67
2023/04/10 01:26:21;;;;;;;118.10;45.60;;;;;;;5.92;83.03;101228.64;126670;1292;114958;-63
2023/04/10 01:30:22;;;;;;;117.90;48.30;;;;;;;5.90;83.21;101227.96;127684;1279;115305;-66
2023/04/10 01:38:30;;;;;;;121.50;47.90;;;;;;;5.89;83.16;101227.98;125639;1301;128001;-69
2023/04/10 01:42:31;;;;;;;143.70;50.50;;;;;;;5.89;83.08;101230.11;124952;1311;115299;-65
2023/04/10 01:46:33;;;;;;;171.30;51.60;;;;;;;5.90;83.54;101228.14;124258;1315;115420;-67
2023/04/10 01:49:36;;;;;;;158.70;52.10;;;;;;;5.92;83.55;101221.02;126505;1260;114846;-65
2023/04/10 01:52:38;;;;;;;;;;;;;;;5.93;83.48;101223.49;129319;1284;114929;-64
2023/04/10 01:55:41;;;;;;;152.30;47.60;;;;;;;5.91;83.40;101221.92;129342;1284;114838;-65
2023/04/10 01:58:44;;;;;;;163.70;50.30;;;;;;;5.91;83.61;101230.42;129549;1284;114775;-65
2023/04/10 02:01:46;;;;;;;118.80;47.20;;;;;;;5.89;83.29;101225.67;129606;1265;115413;-65
2023/04/10 02:04:51;;;;;;;146.50;47.50;;;;;;;5.87;83.16;101227.48;129711;1284;114983;-64
2023/04/10 02:08:08;;;;;;;127.00;47.00;;;;;;;5.86;83.40;101230.87;129410;1267;116417;-64
2023/04/10 02:11:28;;;;;;;158.20;45.20;;;;;;;5.87;83.57;101231.91;129504;1266;114747;-64
2023/04/10 02:14:33;;;;;;;140.80;44.00;;;;;;;5.89;83.64;101234.89;129228;1269;127906;-66
2023/04/10 02:17:37;;;;;;;138.90;46.40;;;;;;;5.91;83.77;101232.92;129401;1267;114832;-64
2023/04/10 02:20:40;;;;;;;143.20;46.50;;;;;;;5.92;83.96;101235.02;129496;1266;114705;-65
2023/04/10 02:23:43;;;;;;;216.20;48.50;;;;;;;5.95;83.71;101231.98;129169;1260;114842;-65
2023/04/10 02:26:47;;;;;;;184.40;48.10;;;;;;;5.95;83.80;101227.18;129390;1267;114894;-65
2023/04/10 02:29:50;;;;;;;134.50;47.30;;;;;;;5.97;83.90;101228.92;129418;1284;114793;-64
2023/04/10 02:32:52;;;;;;;159.70;48.10;;;;;;;5.97;83.84;101228.04;129415;1284;114718;-65
2023/04/10 02:35:54;;;;;;;116.50;46.80;;;;;;;5.97;83.84;101228.56;129480;1266;114763;-64
2023/04/10 02:38:57;;;;;;;184.40;48.60;;;;;;;5.97;83.96;101235.48;129274;1267;114682;-65
2023/04/10 02:42:00;;;;;;;173.80;47.10;;;;;;;5.96;83.84;101234.45;129578;1282;114743;-65
2023/04/10 02:45:02;;;;;;;128.60;46.00;;;;;;;5.95;83.66;101237.30;129455;1264;114807;-65
2023/04/10 02:48:05;;;;;;;166.40;49.30;;;;;;;5.95;83.98;101234.98;129150;1275;114743;-65
2023/04/10 02:51:07;;;;;;;171.30;49.20;;;;;;;5.96;84.00;101238.88;129506;1262;114759;-65
2023/04/10 02:54:10;;;;;;;175.50;46.20;;;;;;;5.96;83.97;101240.11;129617;1262;114739;-64
2023/04/10 02:57:12;;;;;;;146.40;47.80;;;;;;;5.96;83.95;101236.39;129200;1284;114898;-65
2023/04/10 03:00:15;;;;;;;131.60;48.60;;;;;;;5.97;84.02;101234.78;129551;1267;114814;-65
2023/04/10 03:03:19;;;;;;;89.50;49.60;;;;;;;5.95;84.16;101229.84;129513;1265;115435;-65
2023/04/10 03:06:25;;;;;;;112.50;54.70;;;;;;;5.94;84.09;101232.16;129289;1270;126688;-65
2023/04/10 03:09:26;;;;;;;;;;;;;;;5.92;84.13;101234.31;129235;1261;114842;-65
2023/04/10 03:12:28;;;;;;;91.10;51.20;;;;;;;5.92;84.39;101232.20;129448;1284;114864;-65
2023/04/10 03:15:32;;;;;;;98.70;54.30;;;;;;;5.94;84.37;101234.12;129516;1274;114816;-65
2023/04/10 03:18:35;;;;;;;96.80;54.80;;;;;;;5.97;84.52;101229.09;129068;1270;115564;-65
2023/04/10 03:21:37;;;;;;;103.10;57.60;;;;;;;6.01;84.47;101233.69;129549;1284;114736;-64
2023/04/10 03:24:39;;;;;;;116.90;60.20;;;;;;;6.05;84.63;101234.68;129250;1284;119999;-64
2023/04/10 03:27:42;;;;;;;102.30;57.20;;;;;;;6.09;84.56;101231.27;129208;1284;128951;-64
2023/04/10 03:30:44;;;;;;;112.10;61.80;;;;;;;6.13;84.62;101235.10;129194;1284;115205;-65
2023/04/10 03:33:46;;;;;;;148.20;65.00;;;;;;;6.16;84.72;101230.95;129205;1284;114724;-65
2023/04/10 03:36:48;;;;;;;126.70;64.50;;;;;;;6.20;84.78;101222.39;128976;1267;115199;-63
2023/04/10 03:39:50;;;;;;;132.00;62.00;;;;;;;6.24;84.99;101220.54;129098;1285;114829;-65
2023/04/10 03:42:53;;;;;;;130.20;61.80;;;;;;;6.29;84.85;101217.45;129238;1285;115137;-64
2023/04/10 03:45:55;;;;;;;126.30;62.60;;;;;;;6.32;84.88;101215.09;129178;1269;114742;-65
2023/04/10 03:48:57;;;;;;;124.60;61.90;;;;;;;6.35;84.77;101212.03;129499;1285;114744;-65
2023/04/10 03:51:59;;;;;;;143.30;61.50;;;;;;;6.37;84.86;101214.80;129512;1285;114643;-65
2023/04/10 03:55:02;;;;;;;152.00;64.10;;;;;;;6.41;84.90;101214.95;129387;1266;114874;-65
2023/04/10 03:58:04;;;;;;;163.90;63.90;;;;;;;6.42;84.82;101216.52;129476;1285;114835;-65
2023/04/10 04:01:06;;;;;;;150.90;63.50;;;;;;;6.44;84.88;101220.92;129456;1285;114744;-65
2023/04/10 04:04:09;;;;;;;143.10;65.10;;;;;;;6.47;85.02;101224.06;129378;1285;114852;-65
2023/04/10 04:07:12;;;;;;;194.20;61.20;;;;;;;6.49;85.06;101224.20;128993;1267;114890;-65
2023/04/10 04:10:14;;;;;;;124.10;56.40;;;;;;;6.51;85.05;101224.34;128835;1269;127661;-64
2023/04/10 04:13:16;;;;;;;120.00;53.60;;;;;;;6.54;85.21;101227.48;129471;1285;114743;-64
2023/04/10 04:16:18;;;;;;;189.20;53.80;;;;;;;6.57;85.15;101229.55;129493;1261;115340;-65
2023/04/10 04:19:20;;;;;;;161.50;48.60;;;;;;;6.57;85.13;101235.59;129316;1280;114917;-65
2023/04/10 04:22:22;;;;;;;153.30;47.70;;;;;;;6.58;85.12;101235.39;129447;1285;114753;-64
2023/04/10 04:25:25;;;;;;;197.60;46.10;;;;;;;6.60;85.21;101239.45;129483;1264;114851;-65
2023/04/10 04:28:27;;;;;;;174.80;45.90;;;;;;;6.62;85.20;101241.73;129329;1262;114796;-65
2023/04/10 04:31:31;;;;;;;210.60;45.40;;;;;;;6.63;85.13;101235.30;129408;1266;114788;-64
2023/04/10 04:34:33;;;;;;;155.80;45.60;;;;;;;6.66;85.41;101237.91;129163;1267;114820;-65
2023/04/10 04:37:35;;;;;;;182.60;46.80;;;;;;;6.68;85.20;101234.88;129440;1266;115148;-64
2023/04/10 04:40:37;;;;;;;132.70;47.90;;;;;;;6.69;85.15;101239.81;129448;1267;115242;-64
2023/04/10 04:43:40;;;;;;;197.20;47.90;;;;;;;6.71;85.13;101239.96;129437;1267;115498;-65
2023/04/10 04:46:42;;;;;;;132.30;46.30;;;;;;;6.71;84.92;101243.33;129421;1267;114700;-65
2023/04/10 04:49:44;;;;;;;152.70;43.40;;;;;;;6.70;85.06;101250.29;129526;1263;114779;-64
2023/04/10 04:52:46;;;;;;;115.20;44.10;;;;;;;6.71;85.12;101252.39;129444;1285;128806;-64
2023/04/10 04:55:48;;;;;;;179.20;44.30;;;;;;;6.73;85.07;101251.82;129389;1264;114858;-65
2023/04/10 04:58:50;;;;;;;94.20;44.00;;;;;;;6.73;85.12;101251.45;129556;1283;114848;-65
2023/04/10 05:01:52;;;;;;;197.50;42.40;;;;;;;6.74;85.04;101253.39;129558;1267;114702;-65
2023/04/10 05:04:54;;;;;;;142.60;40.10;;;;;;;6.75;84.95;101256.95;129311;1264;114912;-65
2023/04/10 05:07:56;;;;;;;145.30;41.10;;;;;;;6.76;85.10;101260.12;129396;1285;115213;-65
2023/04/10 05:10:58;;;;;;;191.60;40.70;;;;;;;6.78;85.16;101266.81;129498;1285;114743;-65
2023/04/10 05:14:00;;;;;;;136.50;39.10;;;;;;;6.77;84.68;101276.25;129284;1285;126702;-65
2023/04/10 05:17:04;;;;;;;139.20;40.60;;;;;;;6.74;84.63;101277.36;129439;1267;114728;-64
2023/04/10 05:20:08;;;;;;;175.90;38.40;;;;;;;6.72;84.87;101281.66;129432;1267;114718;-64
2023/04/10 05:23:10;;;;;;;196.70;38.20;;;;;;;6.67;84.62;101294.17;129549;1267;114678;-66
2023/04/10 05:26:13;;;;;;;186.80;41.20;;;;;;;6.60;84.70;101299.25;129365;1285;115414;-65
2023/04/10 05:29:15;;;;;;;111.50;40.30;;;;;;;6.61;85.15;101300.86;129558;1267;114852;-66
2023/04/10 05:32:17;;;;;;;122.70;41.00;;;;;;;6.63;85.35;101304.73;129282;1264;127901;-65
2023/04/10 05:35:19;;;;;;;95.10;40.00;;;;;;;6.67;85.38;101304.11;129413;1267;114778;-65
2023/04/10 05:38:21;;;;;;;78.30;42.10;;;;;;;6.72;85.37;101303.33;129483;1267;114695;-65
2023/04/10 05:41:23;;;;;;;91.80;42.80;;;;;;;6.77;85.52;101304.30;129358;1269;114861;-65
2023/04/10 05:44:25;;;;;;;101.50;44.50;;;;;;;6.81;85.45;101306.00;129399;1266;114832;-64
2023/04/10 05:47:27;;;;;;;93.40;42.10;;;;;;;6.88;85.75;101309.61;129632;1285;115288;-66
2023/04/10 05:50:29;;;;;;;98.90;42.60;;;;;;;6.93;85.58;101313.95;129214;1270;114946;-65
2023/04/10 05:53:31;;;;;;;100.20;45.10;;;;;;;7.00;85.53;101311.52;129375;1280;114849;-66
2023/04/10 05:56:33;;;;;;;179.40;45.60;;;;;;;7.09;85.61;101306.03;129445;1274;114878;-67
2023/04/10 05:59:35;;;;;;;114.80;44.60;;;;;;;7.17;85.47;101302.34;129443;1264;115188;-65
2023/04/10 06:02:38;;;;;;;142.30;46.00;;;;;;;7.22;85.65;101302.39;129404;1267;115154;-64
2023/04/10 06:05:41;;;;;;;142.90;44.50;;;;;;;7.26;85.49;101298.95;129252;1285;115352;-66
2023/04/10 06:08:43;;;;;;;124.60;45.30;;;;;;;7.27;85.42;101304.80;129581;1267;114727;-66
2023/04/10 06:11:45;;;;;;;116.00;42.20;;;;;;;7.28;85.06;101307.26;129220;1267;115157;-64
2023/04/10 06:14:52;;;;;;;84.30;43.60;;;;;;;7.30;85.09;101305.63;129138;1279;114713;-66
2023/04/10 06:17:54;;;;;;;224.60;44.70;;;;;;;7.34;85.49;101306.10;129462;1267;115198;-65
2023/04/10 06:20:59;;;;;;;185.00;41.70;;;;;;;7.34;84.98;101308.21;129431;1285;115419;-67
2023/04/10 06:24:01;;;;;;;160.40;41.80;;;;;;;7.37;85.25;101315.96;129534;1267;114738;-65
2023/04/10 06:27:03;;;;;;;137.80;42.40;;;;;;;7.41;85.32;101313.59;129109;1266;114852;-65
2023/04/10 06:30:06;;;;;;;136.80;43.00;;;;;;;7.48;85.55;101309.18;129356;1267;115188;-66
2023/04/10 06:33:09;;;;;;;118.10;42.80;;;;;;;7.54;85.77;101307.27;129484;1267;127499;-67
2023/04/10 06:36:11;;;;;;;102.50;42.80;;;;;;;7.59;85.67;101302.39;129449;1267;114970;-65
2023/04/10 06:39:13;;;;;;;125.90;44.90;;;;;;;7.63;85.46;101305.13;129648;1264;115223;-67
2023/04/10 06:42:15;;;;;;;131.90;42.30;;;;;;;7.70;85.56;101309.61;129336;1270;114903;-67
2023/04/10 06:45:17;;;;;;;129.10;43.70;;;;;;;7.77;85.29;101317.29;129442;1285;114786;-67
2023/04/10 06:48:19;;;;;;;133.80;43.30;;;;;;;7.85;85.31;101319.77;129508;1285;115391;-68
2023/04/10 06:51:21;;;;;;;131.10;44.50;;;;;;;7.93;85.09;101319.61;129505;1284;114670;-67
2023/04/10 06:54:25;;;;;;;104.30;43.80;;;;;;;8.00;85.27;101322.31;129497;1264;115105;-66
2023/04/10 06:57:27;;;;;;;98.90;42.30;;;;;;;8.04;85.39;101328.96;129660;1276;115404;-65
2023/04/10 07:00:30;;;;;;;134.20;44.10;;;;;;;8.10;85.25;101324.39;129604;1267;114782;-67
2023/04/10 07:03:32;;;;;;;99.20;44.30;;;;;;;8.17;85.30;101323.87;129721;1267;114743;-67
2023/04/10 07:06:34;;;;;;;95.40;41.90;;;;;;;8.24;85.38;101321.05;129259;1269;114750;-67
2023/04/10 07:09:37;;;;;;;90.50;45.60;;;;;;;8.36;85.55;101318.45;129555;1264;114751;-66
2023/04/10 07:12:39;;;;;;;78.80;43.50;;;;;;;8.53;85.54;101312.73;129721;1263;114916;-66
2023/04/10 07:15:41;;;;;;;87.80;43.60;;;;;;;8.68;85.49;101316.46;129331;1285;126909;-67
2023/04/10 07:18:43;;;;;;;79.10;43.40;;;;;;;8.81;85.55;101321.83;129362;1267;114881;-66
2023/04/10 07:21:49;;;;;;;77.50;42.20;;;;;;;8.95;85.19;101319.52;129559;1265;115277;-67
2023/04/10 07:24:51;;;;;;;;;;;;;;;9.10;85.27;101317.34;128997;1269;114963;-67
2023/04/10 07:27:53;;;;;;;67.20;41.70;;;;;;;9.24;84.99;101317.30;129558;1265;114906;-68
2023/04/10 07:30:55;;;;;;;72.10;42.40;;;;;;;9.37;84.71;101322.66;129190;1285;115380;-67
2023/04/10 07:33:58;;;;;;;64.40;41.20;;;;;;;9.47;84.52;101323.64;129544;1274;115666;-68
2023/04/10 07:37:01;;;;;;;67.90;41.10;;;;;;;9.55;84.30;101320.52;129138;1278;129108;-66
2023/04/10 07:40:05;;;;;;;64.80;41.90;;;;;;;9.65;84.04;101319.20;129505;1266;114819;-66
2023/04/10 07:43:07;;;;;;;67.70;43.80;;;;;;;9.74;83.97;101321.94;129113;1267;114814;-64
2023/04/10 07:46:10;;;;;;;65.90;43.20;;;;;;;9.82;83.74;101318.51;129236;1267;114877;-64
2023/04/10 07:49:13;;;;;;;67.80;41.20;;;;;;;9.89;83.34;101319.71;129228;1285;114798;-64
2023/04/10 07:52:18;;;;;;;68.10;44.30;;;;;;;9.97;83.52;101318.05;129583;1266;114880;-65
2023/04/10 07:55:20;;;;;;;62.40;40.00;;;;;;;10.08;83.40;101315.38;129671;1285;126585;-64
2023/04/10 07:58:23;;;;;;;71.90;44.00;;;;;;;10.18;83.19;101308.29;129214;1285;114875;-64
2023/04/10 08:01:27;;;;;;;64.80;42.00;;;;;;;10.27;82.88;101309.09;129539;1266;115405;-64
2023/04/10 08:04:29;;;;;;;62.40;39.60;;;;;;;10.37;83.04;101313.06;129646;1266;114709;-64
2023/04/10 08:07:32;;;;;;;63.40;41.00;;;;;;;10.49;82.77;101312.54;129529;1267;114794;-64
2023/04/10 08:10:38;;;;;;;67.60;42.60;;;;;;;10.55;82.33;101313.39;129235;1285;114771;-64
2023/04/10 08:13:40;;;;;;;69.50;41.50;;;;;;;10.61;82.04;101312.83;129552;1265;127805;-64
2023/04/10 08:16:43;;;;;;;63.10;41.30;;;;;;;10.66;82.16;101313.05;129487;1267;115293;-65
2023/04/10 08:19:45;;;;;;;63.90;41.60;;;;;;;10.69;81.93;101308.65;129546;1267;114860;-65
2023/04/10 08:22:47;;;;;;;69.20;45.40;;;;;;;10.79;82.32;101306.88;129509;1267;114816;-65
2023/04/10 08:25:49;;;;;;;67.20;43.40;;;;;;;10.90;82.38;101298.63;128819;1270;115022;-65
2023/04/10 08:28:55;;;;;;;71.50;43.10;;;;;;;11.01;82.00;101305.59;129378;1285;114728;-65
2023/04/10 08:31:59;;;;;;;67.40;42.60;;;;;;;11.05;81.31;101304.91;129081;1268;127048;-63
2023/04/10 08:35:03;;;;;;;67.10;42.00;;;;;;;11.07;81.02;101305.55;129021;1285;115274;-63
2023/04/10 08:38:06;;;;;;;62.60;42.00;;;;;;;11.07;80.67;101307.52;129607;1285;114721;-64
2023/04/10 08:41:13;;;;;;;65.90;42.00;;;;;;;11.07;80.54;101307.87;129115;1264;114724;-67
2023/04/10 08:44:15;;;;;;;69.70;43.90;;;;;;;11.10;80.66;101312.21;129507;1267;114863;-66
2023/04/10 08:47:20;;;;;;;65.00;41.00;;;;;;;11.13;80.31;101308.73;129379;1266;114777;-65
2023/04/10 08:50:22;;;;;;;69.60;43.50;;;;;;;11.16;80.22;101305.21;129149;1263;114765;-65
2023/04/10 08:53:28;;;;;;;65.60;43.90;;;;;;;11.23;80.46;101309.46;129531;1266;114788;-65
2023/04/10 08:56:32;;;;;;;68.70;43.00;;;;;;;11.31;80.42;101310.80;129524;1266;114920;-66
2023/04/10 08:59:34;;;;;;;65.20;41.70;;;;;;;11.40;79.62;101301.70;129390;1267;115548;-66
2023/04/10 09:02:40;;;;;;;69.20;42.40;;;;;;;11.51;80.12;101300.58;129586;1264;114793;-65
2023/04/10 09:05:42;;;;;;;71.70;44.80;;;;;;;11.63;79.66;101296.55;129184;1265;115550;-68
2023/04/10 09:08:44;;;;;;;63.60;42.80;;;;;;;11.75;79.64;101293.04;129511;1267;115367;-66
2023/04/10 09:11:55;;;;;;;62.10;41.10;;;;;;;11.93;79.32;101288.05;129549;1261;114796;-67
2023/04/10 09:14:57;;;;;;;70.00;46.10;;;;;;;12.13;79.15;101283.36;129602;1267;114728;-66
2023/04/10 09:18:01;;;;;;;65.20;43.90;;;;;;;12.23;78.68;101281.88;129467;1267;115017;-67
2023/04/10 09:21:10;;;;;;;64.90;42.40;;;;;;;12.40;78.53;101279.77;129669;1264;114853;-66
2023/04/10 09:24:12;;;;;;;59.60;40.90;;;;;;;12.50;78.05;101278.10;129573;1266;115202;-67
2023/04/10 09:27:41;;;;;;;63.60;42.30;;;;;;;12.58;77.64;101275.77;129559;1283;115435;-66
2023/04/10 09:30:43;;;;;;;64.90;44.10;;;;;;;12.82;77.93;101271.18;129581;1267;115383;-66
2023/04/10 09:33:45;;;;;;;61.50;41.90;;;;;;;12.99;77.75;101268.11;129387;1285;114762;-66
2023/04/10 09:36:55;;;;;;;58.00;41.50;;;;;;;13.06;77.02;101265.29;129545;1261;115613;-67
2023/04/10 09:40:02;;;;;;;61.30;42.30;;;;;;;13.13;76.87;101262.45;129404;1285;128412;-67
2023/04/10 09:43:17;;;;;;;62.60;42.30;;;;;;;13.21;76.81;101253.50;129568;1285;115268;-66
2023/04/10 09:46:27;;;;;;;62.20;42.70;;;;;;;13.31;76.58;101249.81;129465;1281;115231;-67
2023/04/10 09:49:45;;;;;;;57.90;38.80;;;;;;;13.40;75.90;101248.21;129518;1267;114758;-67
2023/04/10 09:52:56;;;;;;;63.20;41.10;;;;;;;13.41;75.65;101238.63;129536;1280;114814;-66
2023/04/10 09:55:59;;;;;;;66.80;41.50;;;;;;;13.63;76.35;101236.86;129449;1262;127887;-67
2023/04/10 09:59:03;;;;;;;54.80;38.10;;;;;;;13.93;75.48;101229.38;129804;1267;115231;-66
2023/04/10 10:02:06;;;;;;;48.60;35.00;;;;;;;14.10;74.88;101220.09;129722;1264;114708;-66
2023/04/10 10:05:09;;;;;;;57.40;41.30;;;;;;;14.28;74.27;101220.66;129509;1262;114882;-66
2023/04/10 10:08:13;;;;;;;54.70;38.10;;;;;;;14.36;73.78;101216.85;129606;1265;114875;-66
2023/04/10 10:11:18;;;;;;;55.90;38.70;;;;;;;14.34;72.75;101209.77;129459;1266;115159;-66
2023/04/10 10:14:21;;;;;;;50.60;36.80;;;;;;;14.30;72.85;101209.22;129476;1267;116364;-66
2023/04/10 10:17:24;;;;;;;53.90;38.40;;;;;;;14.50;73.45;101205.71;129728;1267;115086;-66
2023/04/10 10:20:27;;;;;;;56.40;37.40;;;;;;;14.73;72.82;101202.37;129510;1267;114775;-66
2023/04/10 10:23:31;;;;;;;54.80;37.00;;;;;;;14.83;71.98;101198.10;129392;1266;115333;-66
2023/04/10 10:26:34;;;;;;;50.70;36.70;;;;;;;14.82;71.85;101194.38;129572;1283;114798;-65
2023/04/10 10:29:38;;;;;;;55.20;38.20;;;;;;;14.95;72.14;101193.11;129248;1269;115530;-66
2023/04/10 10:32:41;;;;;;;57.90;39.10;;;;;;;15.12;72.13;101190.94;129705;1266;114789;-65
2023/04/10 10:35:43;;;;;;;51.90;37.20;;;;;;;15.25;71.91;101189.21;129587;1265;114731;-65
2023/04/10 10:39:11;;;;;;;55.60;39.30;;;;;;;15.27;71.06;101184.95;129501;1267;115266;-67
2023/04/10 10:42:35;;;;;;;51.80;37.30;;;;;;;15.27;71.10;101183.52;129430;1285;129026;-68
2023/04/10 10:45:45;;;;;;;51.40;36.40;;;;;;;15.26;70.22;101184.28;129700;1261;116406;-68
2023/04/10 10:48:57;;;;;;;55.00;39.30;;;;;;;15.13;70.13;101181.89;129599;1264;114801;-68
2023/04/10 10:51:59;;;;;;;51.80;37.00;;;;;;;15.15;70.27;101174.77;129331;1265;115387;-68
2023/04/10 10:55:37;;;;;;;52.10;36.20;;;;;;;15.22;70.32;101171.90;129476;1265;114714;-67
2023/04/10 10:58:56;;;;;;;49.70;34.50;;;;;;;15.33;70.41;101164.29;128925;1269;128823;-68
2023/04/10 11:02:17;;;;;;;46.50;34.40;;;;;;;15.34;69.83;101156.49;129003;1290;115392;-68
2023/04/10 11:05:51;;;;;;;46.50;34.20;;;;;;;15.09;68.71;101160.34;128913;1272;114778;-67
2023/04/10 11:08:53;;;;;;;51.70;35.50;;;;;;;14.76;68.55;101163.35;128822;1290;114986;-67
2023/04/10 11:11:58;;;;;;;48.70;35.00;;;;;;;14.55;68.34;101158.90;128956;1274;114765;-65
2023/04/10 11:15:03;;;;;;;47.00;33.90;;;;;;;14.29;68.48;101156.42;128854;1273;128850;-66
2023/04/10 11:18:05;;;;;;;54.50;36.50;;;;;;;14.17;69.00;101154.55;129048;1273;116611;-67
2023/04/10 11:21:15;;;;;;;55.20;37.90;;;;;;;14.02;68.81;101149.55;129068;1268;115643;-67
2023/04/10 11:24:17;;;;;;;51.10;35.60;;;;;;;13.92;68.78;101148.24;128932;1268;114912;-67
2023/04/10 11:27:48;;;;;;;49.30;35.30;;;;;;;13.83;68.83;101141.83;128758;1268;114829;-68
2023/04/10 11:30:50;;;;;;;48.20;34.30;;;;;;;13.81;68.90;101138.16;129059;1284;128878;-66
2023/04/10 11:33:56;;;;;;;48.00;33.10;;;;;;;13.79;68.84;101132.20;129334;1274;114841;-67
2023/04/10 11:37:02;;;;;;;48.40;33.90;;;;;;;13.77;68.67;101125.61;129491;1266;114852;-67
2023/04/10 11:40:05;;;;;;;47.20;31.80;;;;;;;13.77;68.77;101118.81;129513;1285;114806;-67
2023/04/10 11:43:12;;;;;;;45.80;33.60;;;;;;;13.74;68.42;101116.09;129487;1266;114768;-67
2023/04/10 11:46:15;;;;;;;50.00;33.50;;;;;;;13.76;68.75;101113.30;129462;1267;127908;-67
2023/04/10 11:49:22;;;;;;;46.00;33.10;;;;;;;13.81;68.99;101111.45;129561;1267;115161;-67
2023/04/10 11:52:24;;;;;;;45.50;31.30;;;;;;;13.81;68.42;101111.79;129447;1261;114727;-65
2023/04/10 11:55:37;;;;;;;42.40;29.80;;;;;;;13.79;68.10;101110.09;129604;1265;114765;-66
2023/04/10 11:58:39;;;;;;;44.40;30.40;;;;;;;13.82;68.28;101107.98;129486;1265;114875;-65
2023/04/10 12:01:42;;;;;;;40.40;29.40;;;;;;;13.87;68.30;101103.44;129433;1267;114792;-66
2023/04/10 12:04:44;;;;;;;42.80;30.80;;;;;;;13.90;68.03;101102.00;129345;1263;115448;-66
2023/04/10 12:07:48;;;;;;;40.30;30.00;;;;;;;13.90;67.54;101099.33;129515;1267;114783;-66
2023/04/10 12:10:52;;;;;;;40.40;30.00;;;;;;;13.88;67.25;101100.34;129492;1261;115357;-66
2023/04/10 12:13:55;;;;;;;45.60;31.10;;;;;;;13.86;67.48;101097.91;129530;1277;114728;-66
2023/04/10 12:16:58;;;;;;;42.30;30.60;;;;;;;13.87;67.33;101093.94;129333;1285;114824;-66
2023/04/10 12:20:00;;;;;;;44.50;32.20;;;;;;;13.90;67.61;101093.77;129612;1267;115324;-66
2023/04/10 12:23:02;;;;;;;47.10;32.60;;;;;;;13.93;67.52;101088.55;129666;1285;114770;-66
2023/04/10 12:26:11;;;;;;;44.30;29.30;;;;;;;13.97;67.01;101086.95;129532;1267;114799;-66
2023/04/10 12:29:13;;;;;;;38.10;27.50;;;;;;;13.99;66.66;101082.86;129331;1270;114852;-66
2023/04/10 12:32:16;;;;;;;39.80;26.20;;;;;;;14.02;66.87;101076.46;129393;1268;114727;-66
2023/04/10 12:35:18;;;;;;;39.90;27.40;;;;;;;14.10;66.53;101078.00;129535;1267;114753;-66
2023/04/10 12:38:39;;;;;;;39.00;27.90;;;;;;;14.14;66.37;101075.84;129654;1285;115365;-63
2023/04/10 12:41:41;;;;;;;40.00;27.20;;;;;;;14.14;66.60;101074.59;129539;1265;128779;-64
2023/04/10 12:44:59;;;;;;;38.60;27.90;;;;;;;14.13;66.49;101070.83;129548;1267;114883;-63
2023/04/10 12:48:01;;;;;;;34.90;26.30;;;;;;;14.13;66.19;101066.88;129605;1265;114829;-64
2023/04/10 12:51:04;;;;;;;37.30;28.70;;;;;;;14.08;66.16;101064.63;129494;1265;115237;-63
2023/04/10 12:54:06;;;;;;;35.90;26.30;;;;;;;14.02;65.99;101065.33;129115;1265;114712;-62
2023/04/10 12:57:25;;;;;;;32.80;24.90;;;;;;;13.98;66.01;101055.09;128847;1261;114914;-63
2023/04/10 13:00:27;;;;;;;31.40;24.30;;;;;;;14.01;66.22;101052.05;129521;1264;129005;-63
2023/04/10 13:03:30;;;;;;;27.60;20.50;;;;;;;14.03;66.08;101044.96;129358;1267;114928;-63
2023/04/10 13:06:32;;;;;;;33.50;22.50;;;;;;;14.10;66.28;101042.77;129091;1283;114832;-63
2023/04/10 13:09:34;;;;;;;34.60;25.30;;;;;;;14.16;66.09;101037.66;129501;1267;114720;-61
2023/04/10 13:12:37;;;;;;;32.90;24.60;;;;;;;14.22;66.17;101033.92;128986;1270;115096;-62
2023/04/10 13:15:40;;;;;;;33.60;24.80;;;;;;;14.25;66.19;101025.30;129179;1265;114737;-65
2023/04/10 13:18:42;;;;;;;38.80;25.70;;;;;;;14.28;65.92;101022.45;129623;1264;114817;-66
2023/04/10 13:21:45;;;;;;;33.90;25.00;;;;;;;14.28;65.60;101018.67;128907;1264;473090;-65
2023/04/10 13:24:47;;;;;;;35.80;26.40;;;;;;;14.24;65.47;101012.03;129507;1265;115314;-65
2023/04/10 13:27:49;;;;;;;42.00;29.30;;;;;;;14.26;65.65;101013.21;129487;1274;114800;-63
2023/04/10 13:30:51;;;;;;;35.00;27.10;;;;;;;14.30;65.52;101005.83;129479;1267;115432;-64
2023/04/10 13:33:53;;;;;;;38.70;28.30;;;;;;;14.38;65.26;100999.80;129553;1277;114737;-66
2023/04/10 13:36:55;;;;;;;36.40;26.90;;;;;;;14.43;64.59;100996.09;129458;1267;114788;-64
2023/04/10 13:39:57;;;;;;;35.20;24.20;;;;;;;14.52;64.84;100996.35;129493;1264;114745;-65
2023/04/10 13:43:00;;;;;;;34.00;23.80;;;;;;;14.64;65.05;100994.09;129597;1267;115548;-65
2023/04/10 13:46:02;;;;;;;34.40;24.80;;;;;;;14.77;64.66;100992.15;129419;1269;115348;-66
2023/04/10 13:49:05;;;;;;;35.10;25.90;;;;;;;14.89;64.63;100987.14;129547;1267;114797;-66
2023/04/10 13:52:07;;;;;;;33.00;23.90;;;;;;;14.97;64.72;100982.55;129455;1264;114722;-67
2023/04/10 13:55:09;;;;;;;32.20;23.40;;;;;;;15.03;63.94;100975.36;129548;1281;114756;-64
2023/04/10 13:58:21;;;;;;;32.90;24.10;;;;;;;15.03;63.59;100974.29;129231;1268;114730;-64
2023/04/10 14:01:37;;;;;;;32.20;23.70;;;;;;;15.06;63.74;100970.55;129305;1280;127781;-66
2023/04/10 14:04:50;;;;;;;28.70;21.40;;;;;;;15.11;63.84;100970.05;129728;1269;115163;-65
2023/04/10 14:08:01;;;;;;;30.20;22.90;;;;;;;15.20;63.82;100964.52;129728;1266;114741;-63
2023/04/10 14:11:09;;;;;;;32.60;24.30;;;;;;;15.22;63.62;100958.69;129272;1264;114899;-65
2023/04/10 14:14:11;;;;;;;29.20;21.30;;;;;;;15.21;63.06;100956.77;129636;1261;114770;-66
2023/04/10 14:17:13;;;;;;;32.90;23.00;;;;;;;15.17;62.49;100952.13;129660;1263;114803;-64
2023/04/10 14:20:15;;;;;;;30.20;23.00;;;;;;;15.10;62.32;100950.54;129628;1261;114747;-64
2023/04/10 14:23:17;;;;;;;33.60;25.60;;;;;;;15.05;62.66;100941.84;129692;1261;115291;-64
2023/04/10 14:26:20;;;;;;;32.70;23.60;;;;;;;15.01;62.61;100941.14;129832;1261;114743;-64
2023/04/10 14:29:23;;;;;;;34.70;24.50;;;;;;;14.97;62.57;100935.80;129653;1267;114712;-64
2023/04/10 14:32:25;;;;;;;33.40;26.10;;;;;;;14.92;62.35;100929.27;129698;1262;114727;-64
2023/04/10 14:35:27;;;;;;;34.20;26.30;;;;;;;14.85;62.51;100927.86;129534;1264;114749;-63
2023/04/10 14:38:30;;;;;;;37.40;28.20;;;;;;;14.83;62.51;100921.85;129718;1267;128190;-64
2023/04/10 14:41:32;;;;;;;30.90;23.20;;;;;;;14.78;62.42;100919.96;129743;1264;115419;-65
2023/04/10 14:44:34;;;;;;;31.80;23.00;;;;;;;14.72;62.35;100917.63;129704;1261;114836;-64